Terminal Aerodrome Forecast
Issued by NWS

Home | Current Version | Previous Version | Text Only | Print | Product List | Glossary On
Versions: 1 2 3 4 5 6 7 8 9 10 11 12 13
098
FTUS45 KPIH 251720
TAFSUN
TAF
KSUN 251720Z 2518/2618 13008KT P6SM -SHRA VCTS SCT050CB
     FM252000 25010KT P6SM VCTS SCT050CB SCT080
     FM252200 31015KT P6SM VCTS BKN060CB
     FM260200 31008KT P6SM VCSH FEW040=

USA.gov is the U.S. government's official web portal to all federal, state and local government web resources and services.